sensor_id;sensor_type;location;lat;lon;timestamp;temperature;humidity
3344;DHT22;1685;53.104;8.228;2023-02-20T00:01:35;5.70;99.90
3344;DHT22;1685;53.104;8.228;2023-02-20T00:04:02;5.80;99.90
3344;DHT22;1685;53.104;8.228;2023-02-20T00:06:29;5.40;99.90
3344;DHT22;1685;53.104;8.228;2023-02-20T00:08:56;5.80;99.90
3344;DHT22;1685;53.104;8.228;2023-02-20T00:13:51;5.80;99.90
3344;DHT22;1685;53.104;8.228;2023-02-20T00:16:17;6.30;99.90
3344;DHT22;1685;53.104;8.228;2023-02-20T00:18:44;5.90;99.90
3344;DHT22;1685;53.104;8.228;2023-02-20T00:21:11;5.80;99.90
3344;DHT22;1685;53.104;8.228;2023-02-20T00:23:38;5.80;99.90
3344;DHT22;1685;53.104;8.228;2023-02-20T00:26:08;5.90;99.90
3344;DHT22;1685;53.104;8.228;2023-02-20T00:31:04;5.80;99.90
3344;DHT22;1685;53.104;8.228;2023-02-20T00:33:31;5.70;99.90
3344;DHT22;1685;53.104;8.228;2023-02-20T00:48:15;5.90;99.90
3344;DHT22;1685;53.104;8.228;2023-02-20T01:02:57;5.80;99.90
3344;DHT22;1685;53.104;8.228;2023-02-20T01:05:25;5.90;99.90
3344;DHT22;1685;53.104;8.228;2023-02-20T01:07:52;5.90;99.90
3344;DHT22;1685;53.104;8.228;2023-02-20T01:15:14;5.90;99.90
3344;DHT22;1685;53.104;8.228;2023-02-20T01:20:09;5.90;99.90
3344;DHT22;1685;53.104;8.228;2023-02-20T01:22:37;5.80;99.90
3344;DHT22;1685;53.104;8.228;2023-02-20T01:25:04;5.70;99.90
3344;DHT22;1685;53.104;8.228;2023-02-20T01:27:31;6.00;99.90
3344;DHT22;1685;53.104;8.228;2023-02-20T01:32:25;5.80;99.90
3344;DHT22;1685;53.104;8.228;2023-02-20T01:34:52;5.80;99.90
3344;DHT22;1685;53.104;8.228;2023-02-20T01:39:47;6.40;99.90
3344;DHT22;1685;53.104;8.228;2023-02-20T01:42:18;6.00;99.90
3344;DHT22;1685;53.104;8.228;2023-02-20T01:44:46;6.00;99.90
3344;DHT22;1685;53.104;8.228;2023-02-20T01:47:15;6.10;99.90
3344;DHT22;1685;53.104;8.228;2023-02-20T01:49:44;6.10;99.90
3344;DHT22;1685;53.104;8.228;2023-02-20T01:52:15;6.10;99.90
3344;DHT22;1685;53.104;8.228;2023-02-20T01:54:47;6.00;99.90
3344;DHT22;1685;53.104;8.228;2023-02-20T01:57:17;5.90;99.90
3344;DHT22;1685;53.104;8.228;2023-02-20T01:59:46;5.90;99.90
3344;DHT22;1685;53.104;8.228;2023-02-20T02:02:14;5.90;99.90
3344;DHT22;1685;53.104;8.228;2023-02-20T02:04:43;5.90;99.90
3344;DHT22;1685;53.104;8.228;2023-02-20T02:07:11;6.00;99.90
3344;DHT22;1685;53.104;8.228;2023-02-20T02:09:43;6.10;99.90
3344;DHT22;1685;53.104;8.228;2023-02-20T02:12:14;6.00;99.90
3344;DHT22;1685;53.104;8.228;2023-02-20T02:14:41;6.30;99.90
3344;DHT22;1685;53.104;8.228;2023-02-20T02:20:24;6.00;99.90
3344;DHT22;1685;53.104;8.228;2023-02-20T02:26:35;6.10;99.90
3344;DHT22;1685;53.104;8.228;2023-02-20T02:29:29;6.00;99.90
3344;DHT22;1685;53.104;8.228;2023-02-20T02:32:32;6.10;99.90
3344;DHT22;1685;53.104;8.228;2023-02-20T02:35:27;6.20;99.90
3344;DHT22;1685;53.104;8.228;2023-02-20T02:38:04;6.00;99.90
3344;DHT22;1685;53.104;8.228;2023-02-20T02:40:40;6.20;99.90
3344;DHT22;1685;53.104;8.228;2023-02-20T02:43:13;6.00;99.90
3344;DHT22;1685;53.104;8.228;2023-02-20T02:45:45;6.10;99.90
3344;DHT22;1685;53.104;8.228;2023-02-20T02:48:18;6.10;99.90
3344;DHT22;1685;53.104;8.228;2023-02-20T02:50:47;6.20;99.90
3344;DHT22;1685;53.104;8.228;2023-02-20T02:53:16;6.30;99.90
3344;DHT22;1685;53.104;8.228;2023-02-20T02:58:10;6.40;99.90
3344;DHT22;1685;53.104;8.228;2023-02-20T03:00:40;6.30;99.90
3344;DHT22;1685;53.104;8.228;2023-02-20T03:03:11;6.40;99.90
3344;DHT22;1685;53.104;8.228;2023-02-20T03:05:43;6.30;99.90
3344;DHT22;1685;53.104;8.228;2023-02-20T03:08:20;6.30;99.90
3344;DHT22;1685;53.104;8.228;2023-02-20T03:10:55;6.40;99.90
3344;DHT22;1685;53.104;8.228;2023-02-20T03:13:24;6.40;99.90
3344;DHT22;1685;53.104;8.228;2023-02-20T03:16:10;6.40;99.90
3344;DHT22;1685;53.104;8.228;2023-02-20T03:18:39;6.30;99.90
3344;DHT22;1685;53.104;8.228;2023-02-20T03:21:10;6.40;99.90
3344;DHT22;1685;53.104;8.228;2023-02-20T03:23:43;6.50;99.90
3344;DHT22;1685;53.104;8.228;2023-02-20T03:26:13;6.40;99.90
3344;DHT22;1685;53.104;8.228;2023-02-20T03:28:45;6.50;99.90
3344;DHT22;1685;53.104;8.228;2023-02-20T03:31:16;6.40;99.90
3344;DHT22;1685;53.104;8.228;2023-02-20T03:33:46;6.50;99.90
3344;DHT22;1685;53.104;8.228;2023-02-20T03:36:36;6.40;99.90
3344;DHT22;1685;53.104;8.228;2023-02-20T03:39:29;6.50;99.90
3344;DHT22;1685;53.104;8.228;2023-02-20T03:42:15;6.60;99.90
3344;DHT22;1685;53.104;8.228;2023-02-20T03:45:02;6.40;99.90
3344;DHT22;1685;53.104;8.228;2023-02-20T03:47:30;6.60;99.90
3344;DHT22;1685;53.104;8.228;2023-02-20T03:50:00;6.50;99.90
3344;DHT22;1685;53.104;8.228;2023-02-20T03:52:28;6.40;99.90
3344;DHT22;1685;53.104;8.228;2023-02-20T03:54:56;6.40;99.90
3344;DHT22;1685;53.104;8.228;2023-02-20T03:57:26;6.40;99.90
3344;DHT22;1685;53.104;8.228;2023-02-20T03:59:58;6.50;99.90
3344;DHT22;1685;53.104;8.228;2023-02-20T04:02:29;6.40;99.90
3344;DHT22;1685;53.104;8.228;2023-02-20T04:04:59;6.60;99.90
3344;DHT22;1685;53.104;8.228;2023-02-20T04:07:33;6.40;99.90
3344;DHT22;1685;53.104;8.228;2023-02-20T04:10:06;6.50;99.90
3344;DHT22;1685;53.104;8.228;2023-02-20T04:12:35;6.60;99.90
3344;DHT22;1685;53.104;8.228;2023-02-20T04:15:04;6.50;99.90
3344;DHT22;1685;53.104;8.228;2023-02-20T04:17:38;6.50;99.90
3344;DHT22;1685;53.104;8.228;2023-02-20T04:20:06;6.60;99.90
3344;DHT22;1685;53.104;8.228;2023-02-20T04:22:37;6.40;99.90
3344;DHT22;1685;53.104;8.228;2023-02-20T04:25:11;6.50;99.90
3344;DHT22;1685;53.104;8.228;2023-02-20T04:27:40;6.60;99.90
3344;DHT22;1685;53.104;8.228;2023-02-20T04:30:08;6.50;99.90
3344;DHT22;1685;53.104;8.228;2023-02-20T04:32:35;6.70;99.90
3344;DHT22;1685;53.104;8.228;2023-02-20T04:35:02;6.40;99.90
3344;DHT22;1685;53.104;8.228;2023-02-20T04:37:29;6.50;99.90
3344;DHT22;1685;53.104;8.228;2023-02-20T04:39:55;6.50;99.90
3344;DHT22;1685;53.104;8.228;2023-02-20T04:42:23;6.40;99.90
3344;DHT22;1685;53.104;8.228;2023-02-20T04:44:50;6.50;99.90
3344;DHT22;1685;53.104;8.228;2023-02-20T04:47:17;6.60;99.90
3344;DHT22;1685;53.104;8.228;2023-02-20T04:49:44;6.90;99.90
3344;DHT22;1685;53.104;8.228;2023-02-20T04:52:11;6.40;99.90
3344;DHT22;1685;53.104;8.228;2023-02-20T04:54:38;6.40;99.90
3344;DHT22;1685;53.104;8.228;2023-02-20T04:57:04;6.50;99.90
3344;DHT22;1685;53.104;8.228;2023-02-20T04:59:32;6.60;99.90
3344;DHT22;1685;53.104;8.228;2023-02-20T05:04:26;6.50;99.90
3344;DHT22;1685;53.104;8.228;2023-02-20T05:06:54;6.70;99.90
3344;DHT22;1685;53.104;8.228;2023-02-20T05:09:21;6.60;99.90
3344;DHT22;1685;53.104;8.228;2023-02-20T05:16:44;6.60;99.90
3344;DHT22;1685;53.104;8.228;2023-02-20T05:21:41;6.80;99.90
3344;DHT22;1685;53.104;8.228;2023-02-20T05:24:24;6.50;99.90
3344;DHT22;1685;53.104;8.228;2023-02-20T05:26:53;6.50;99.90
3344;DHT22;1685;53.104;8.228;2023-02-20T05:29:19;6.50;99.90
3344;DHT22;1685;53.104;8.228;2023-02-20T05:31:48;6.50;99.90
3344;DHT22;1685;53.104;8.228;2023-02-20T05:34:14;6.40;99.90
3344;DHT22;1685;53.104;8.228;2023-02-20T05:39:08;6.50;99.90
3344;DHT22;1685;53.104;8.228;2023-02-20T05:41:35;6.60;99.90
3344;DHT22;1685;53.104;8.228;2023-02-20T05:44:02;6.60;99.90
3344;DHT22;1685;53.104;8.228;2023-02-20T05:48:57;6.50;99.90
3344;DHT22;1685;53.104;8.228;2023-02-20T05:51:26;6.50;99.90
3344;DHT22;1685;53.104;8.228;2023-02-20T05:53:53;6.60;99.90
3344;DHT22;1685;53.104;8.228;2023-02-20T05:56:19;6.50;99.90
3344;DHT22;1685;53.104;8.228;2023-02-20T05:58:47;6.60;99.90
3344;DHT22;1685;53.104;8.228;2023-02-20T06:01:19;6.70;99.90
3344;DHT22;1685;53.104;8.228;2023-02-20T06:06:15;6.60;99.90
3344;DHT22;1685;53.104;8.228;2023-02-20T06:08:42;6.70;99.90
3344;DHT22;1685;53.104;8.228;2023-02-20T06:11:10;6.70;99.90
3344;DHT22;1685;53.104;8.228;2023-02-20T06:13:38;6.80;99.90
3344;DHT22;1685;53.104;8.228;2023-02-20T06:16:06;6.90;99.90
3344;DHT22;1685;53.104;8.228;2023-02-20T06:23:29;6.80;99.90
3344;DHT22;1685;53.104;8.228;2023-02-20T06:30:49;7.00;99.90
3344;DHT22;1685;53.104;8.228;2023-02-20T06:40:39;6.90;99.90
3344;DHT22;1685;53.104;8.228;2023-02-20T06:48:01;6.80;99.90
3344;DHT22;1685;53.104;8.228;2023-02-20T06:55:22;6.90;99.90
3344;DHT22;1685;53.104;8.228;2023-02-20T06:57:50;6.90;99.90
3344;DHT22;1685;53.104;8.228;2023-02-20T07:00:17;7.00;99.90
3344;DHT22;1685;53.104;8.228;2023-02-20T07:10:06;7.10;99.90
3344;DHT22;1685;53.104;8.228;2023-02-20T07:15:05;7.20;99.90
3344;DHT22;1685;53.104;8.228;2023-02-20T07:24:54;7.20;99.90
3344;DHT22;1685;53.104;8.228;2023-02-20T07:32:17;7.30;99.90
3344;DHT22;1685;53.104;8.228;2023-02-20T07:37:15;7.30;99.90
3344;DHT22;1685;53.104;8.228;2023-02-20T07:49:32;7.50;99.90
3344;DHT22;1685;53.104;8.228;2023-02-20T07:56:53;7.50;99.90
3344;DHT22;1685;53.104;8.228;2023-02-20T08:06:43;7.60;99.90
3344;DHT22;1685;53.104;8.228;2023-02-20T08:14:04;7.80;99.90
3344;DHT22;1685;53.104;8.228;2023-02-20T08:18:59;7.70;99.90
3344;DHT22;1685;53.104;8.228;2023-02-20T08:21:26;7.70;99.90
3344;DHT22;1685;53.104;8.228;2023-02-20T08:23:54;7.70;99.90
3344;DHT22;1685;53.104;8.228;2023-02-20T08:26:21;7.70;99.90
3344;DHT22;1685;53.104;8.228;2023-02-20T08:31:16;7.70;99.90
3344;DHT22;1685;53.104;8.228;2023-02-20T08:41:09;7.80;99.90
3344;DHT22;1685;53.104;8.228;2023-02-20T08:43:39;7.70;99.90
3344;DHT22;1685;53.104;8.228;2023-02-20T08:48:35;7.80;99.90
3344;DHT22;1685;53.104;8.228;2023-02-20T08:53:29;7.70;99.90
3344;DHT22;1685;53.104;8.228;2023-02-20T08:55:56;7.90;99.90
3344;DHT22;1685;53.104;8.228;2023-02-20T08:58:25;7.80;99.90
3344;DHT22;1685;53.104;8.228;2023-02-20T09:15:35;7.90;99.90
3344;DHT22;1685;53.104;8.228;2023-02-20T09:18:04;8.10;99.90
3344;DHT22;1685;53.104;8.228;2023-02-20T09:32:50;8.30;99.90
3344;DHT22;1685;53.104;8.228;2023-02-20T09:35:20;8.30;99.90
3344;DHT22;1685;53.104;8.228;2023-02-20T09:40:15;8.40;99.90
3344;DHT22;1685;53.104;8.228;2023-02-20T09:42:48;8.50;99.90
3344;DHT22;1685;53.104;8.228;2023-02-20T09:45:20;8.40;99.90
3344;DHT22;1685;53.104;8.228;2023-02-20T09:47:59;8.60;99.90
3344;DHT22;1685;53.104;8.228;2023-02-20T09:50:33;8.30;99.90
3344;DHT22;1685;53.104;8.228;2023-02-20T09:53:05;8.60;99.90
3344;DHT22;1685;53.104;8.228;2023-02-20T09:55:37;8.50;99.90
3344;DHT22;1685;53.104;8.228;2023-02-20T09:58:05;8.60;99.90
3344;DHT22;1685;53.104;8.228;2023-02-20T10:00:34;8.60;99.90
3344;DHT22;1685;53.104;8.228;2023-02-20T10:03:15;8.60;99.90
3344;DHT22;1685;53.104;8.228;2023-02-20T10:08:20;8.50;99.90
3344;DHT22;1685;53.104;8.228;2023-02-20T10:10:49;8.60;99.90
3344;DHT22;1685;53.104;8.228;2023-02-20T10:13:42;8.60;99.90
3344;DHT22;1685;53.104;8.228;2023-02-20T10:16:26;8.80;99.90
3344;DHT22;1685;53.104;8.228;2023-02-20T10:19:04;8.60;99.90
3344;DHT22;1685;53.104;8.228;2023-02-20T10:21:46;8.70;99.90
3344;DHT22;1685;53.104;8.228;2023-02-20T10:24:25;8.70;99.90
3344;DHT22;1685;53.104;8.228;2023-02-20T10:26:56;8.60;99.90
3344;DHT22;1685;53.104;8.228;2023-02-20T10:29:28;8.60;99.90
3344;DHT22;1685;53.104;8.228;2023-02-20T10:32:00;8.70;99.90
3344;DHT22;1685;53.104;8.228;2023-02-20T10:34:35;8.70;99.90
3344;DHT22;1685;53.104;8.228;2023-02-20T10:37:09;8.70;99.90
3344;DHT22;1685;53.104;8.228;2023-02-20T10:39:38;8.80;99.90
3344;DHT22;1685;53.104;8.228;2023-02-20T10:42:11;8.80;99.90
3344;DHT22;1685;53.104;8.228;2023-02-20T10:44:44;8.80;99.90
3344;DHT22;1685;53.104;8.228;2023-02-20T10:47:15;8.80;99.90
3344;DHT22;1685;53.104;8.228;2023-02-20T10:49:52;8.80;99.90
3344;DHT22;1685;53.104;8.228;2023-02-20T10:52:24;8.80;99.90
3344;DHT22;1685;53.104;8.228;2023-02-20T10:54:54;8.80;99.90
3344;DHT22;1685;53.104;8.228;2023-02-20T10:57:30;10.90;99.90
3344;DHT22;1685;53.104;8.228;2023-02-20T11:00:02;8.80;99.90
3344;DHT22;1685;53.104;8.228;2023-02-20T11:02:35;8.80;99.90
3344;DHT22;1685;53.104;8.228;2023-02-20T11:05:07;8.80;99.90
3344;DHT22;1685;53.104;8.228;2023-02-20T11:10:03;8.80;99.90
3344;DHT22;1685;53.104;8.228;2023-02-20T11:12:33;8.80;99.90
3344;DHT22;1685;53.104;8.228;2023-02-20T11:15:05;6.30;99.90
3344;DHT22;1685;53.104;8.228;2023-02-20T11:22:43;8.80;99.90
3344;DHT22;1685;53.104;8.228;2023-02-20T11:25:16;8.80;99.90
3344;DHT22;1685;53.104;8.228;2023-02-20T11:27:44;11.40;99.90
3344;DHT22;1685;53.104;8.228;2023-02-20T11:30:26;8.90;99.90
3344;DHT22;1685;53.104;8.228;2023-02-20T11:33:00;8.90;99.90
3344;DHT22;1685;53.104;8.228;2023-02-20T11:35:30;8.80;99.90
3344;DHT22;1685;53.104;8.228;2023-02-20T11:38:26;8.90;99.90
3344;DHT22;1685;53.104;8.228;2023-02-20T11:41:20;8.70;99.90
3344;DHT22;1685;53.104;8.228;2023-02-20T11:44:04;8.80;99.90
3344;DHT22;1685;53.104;8.228;2023-02-20T11:49:00;8.90;99.90
3344;DHT22;1685;53.104;8.228;2023-02-20T11:51:35;8.90;99.90
3344;DHT22;1685;53.104;8.228;2023-02-20T11:54:13;8.70;99.90
3344;DHT22;1685;53.104;8.228;2023-02-20T11:57:01;8.90;99.90
3344;DHT22;1685;53.104;8.228;2023-02-20T11:59:35;9.00;99.90
3344;DHT22;1685;53.104;8.228;2023-02-20T12:02:25;8.90;99.90
3344;DHT22;1685;53.104;8.228;2023-02-20T12:05:05;9.00;99.90
3344;DHT22;1685;53.104;8.228;2023-02-20T12:07:35;9.00;99.90
3344;DHT22;1685;53.104;8.228;2023-02-20T12:12:50;9.10;99.90
3344;DHT22;1685;53.104;8.228;2023-02-20T12:15:20;9.10;99.90
3344;DHT22;1685;53.104;8.228;2023-02-20T12:18:24;9.60;99.90
3344;DHT22;1685;53.104;8.228;2023-02-20T12:20:57;8.90;99.90
3344;DHT22;1685;53.104;8.228;2023-02-20T12:23:32;9.10;99.90
3344;DHT22;1685;53.104;8.228;2023-02-20T12:26:13;9.20;99.90
3344;DHT22;1685;53.104;8.228;2023-02-20T12:28:52;9.10;99.90
3344;DHT22;1685;53.104;8.228;2023-02-20T12:31:32;9.20;99.90
3344;DHT22;1685;53.104;8.228;2023-02-20T12:34:11;9.20;99.90
3344;DHT22;1685;53.104;8.228;2023-02-20T12:36:41;9.20;99.90
3344;DHT22;1685;53.104;8.228;2023-02-20T12:39:18;9.20;99.90
3344;DHT22;1685;53.104;8.228;2023-02-20T12:41:56;9.20;99.90
3344;DHT22;1685;53.104;8.228;2023-02-20T12:44:37;9.30;99.90
3344;DHT22;1685;53.104;8.228;2023-02-20T12:47:19;9.10;99.90
3344;DHT22;1685;53.104;8.228;2023-02-20T12:49:56;9.20;99.90
3344;DHT22;1685;53.104;8.228;2023-02-20T12:52:51;9.20;99.90
3344;DHT22;1685;53.104;8.228;2023-02-20T12:55:29;9.30;99.90
3344;DHT22;1685;53.104;8.228;2023-02-20T12:58:08;9.30;99.90
3344;DHT22;1685;53.104;8.228;2023-02-20T13:00:43;9.30;99.90
3344;DHT22;1685;53.104;8.228;2023-02-20T13:03:13;9.30;99.90
3344;DHT22;1685;53.104;8.228;2023-02-20T13:05:42;9.30;99.90
3344;DHT22;1685;53.104;8.228;2023-02-20T13:08:12;9.30;99.90
3344;DHT22;1685;53.104;8.228;2023-02-20T13:10:51;9.30;99.90
3344;DHT22;1685;53.104;8.228;2023-02-20T13:13:20;9.30;99.90
3344;DHT22;1685;53.104;8.228;2023-02-20T13:15:53;9.30;99.90
3344;DHT22;1685;53.104;8.228;2023-02-20T13:18:28;9.30;99.90
3344;DHT22;1685;53.104;8.228;2023-02-20T13:21:00;9.30;99.90
3344;DHT22;1685;53.104;8.228;2023-02-20T13:23:31;9.20;99.90
3344;DHT22;1685;53.104;8.228;2023-02-20T13:28:37;9.20;99.90
3344;DHT22;1685;53.104;8.228;2023-02-20T13:31:16;9.20;99.90
3344;DHT22;1685;53.104;8.228;2023-02-20T13:33:44;9.20;99.90
3344;DHT22;1685;53.104;8.228;2023-02-20T13:36:37;9.10;99.90
3344;DHT22;1685;53.104;8.228;2023-02-20T13:39:34;9.20;99.90
3344;DHT22;1685;53.104;8.228;2023-02-20T13:42:02;9.50;99.90
3344;DHT22;1685;53.104;8.228;2023-02-20T13:44:40;9.20;99.90
3344;DHT22;1685;53.104;8.228;2023-02-20T13:47:32;9.20;99.90
3344;DHT22;1685;53.104;8.228;2023-02-20T13:52:35;9.30;99.90
3344;DHT22;1685;53.104;8.228;2023-02-20T13:55:12;9.20;99.90
3344;DHT22;1685;53.104;8.228;2023-02-20T13:57:44;9.30;99.90
3344;DHT22;1685;53.104;8.228;2023-02-20T14:00:23;9.20;99.90
3344;DHT22;1685;53.104;8.228;2023-02-20T14:05:20;9.30;99.90
3344;DHT22;1685;53.104;8.228;2023-02-20T14:10:18;9.40;99.90
3344;DHT22;1685;53.104;8.228;2023-02-20T14:12:52;9.40;99.90
3344;DHT22;1685;53.104;8.228;2023-02-20T14:15:22;9.50;99.90
3344;DHT22;1685;53.104;8.228;2023-02-20T14:20:19;9.40;99.90
3344;DHT22;1685;53.104;8.228;2023-02-20T14:25:25;9.50;99.90
3344;DHT22;1685;53.104;8.228;2023-02-20T14:28:05;9.50;99.90
3344;DHT22;1685;53.104;8.228;2023-02-20T14:30:33;9.50;99.90
3344;DHT22;1685;53.104;8.228;2023-02-20T14:35:48;9.40;99.90
3344;DHT22;1685;53.104;8.228;2023-02-20T14:38:29;9.50;99.90
3344;DHT22;1685;53.104;8.228;2023-02-20T14:43:27;9.50;99.90
3344;DHT22;1685;53.104;8.228;2023-02-20T14:46:02;9.50;99.90
3344;DHT22;1685;53.104;8.228;2023-02-20T14:48:30;9.50;99.90
3344;DHT22;1685;53.104;8.228;2023-02-20T14:51:11;9.30;99.90
3344;DHT22;1685;53.104;8.228;2023-02-20T14:53:40;9.60;99.90
3344;DHT22;1685;53.104;8.228;2023-02-20T14:56:14;9.50;99.90
3344;DHT22;1685;53.104;8.228;2023-02-20T15:01:28;9.40;99.90
3344;DHT22;1685;53.104;8.228;2023-02-20T15:04:01;9.60;99.90
3344;DHT22;1685;53.104;8.228;2023-02-20T15:06:32;9.50;99.90
3344;DHT22;1685;53.104;8.228;2023-02-20T15:09:00;9.60;99.90
3344;DHT22;1685;53.104;8.228;2023-02-20T15:16:27;9.60;99.90
3344;DHT22;1685;53.104;8.228;2023-02-20T15:21:34;9.60;99.90
3344;DHT22;1685;53.104;8.228;2023-02-20T15:24:30;9.60;99.90
3344;DHT22;1685;53.104;8.228;2023-02-20T15:27:17;9.60;99.90
3344;DHT22;1685;53.104;8.228;2023-02-20T15:29:45;9.60;99.90
3344;DHT22;1685;53.104;8.228;2023-02-20T15:32:20;9.80;99.90
3344;DHT22;1685;53.104;8.228;2023-02-20T15:34:50;9.60;99.90
3344;DHT22;1685;53.104;8.228;2023-02-20T15:37:21;9.70;99.90
3344;DHT22;1685;53.104;8.228;2023-02-20T15:42:17;9.70;99.90
3344;DHT22;1685;53.104;8.228;2023-02-20T15:49:40;9.60;99.90
3344;DHT22;1685;53.104;8.228;2023-02-20T15:52:12;9.70;99.90
3344;DHT22;1685;53.104;8.228;2023-02-20T15:57:12;9.60;99.90
3344;DHT22;1685;53.104;8.228;2023-02-20T16:02:12;9.50;99.90
3344;DHT22;1685;53.104;8.228;2023-02-20T16:04:40;9.60;99.90
3344;DHT22;1685;53.104;8.228;2023-02-20T16:19:23;9.60;99.90
3344;DHT22;1685;53.104;8.228;2023-02-20T16:21:54;9.60;99.90
3344;DHT22;1685;53.104;8.228;2023-02-20T16:29:17;9.40;99.90
3344;DHT22;1685;53.104;8.228;2023-02-20T16:34:57;9.40;99.90
3344;DHT22;1685;53.104;8.228;2023-02-20T16:37:26;9.40;99.90
3344;DHT22;1685;53.104;8.228;2023-02-20T16:42:35;9.30;99.90
3344;DHT22;1685;53.104;8.228;2023-02-20T16:45:04;9.30;99.90
3344;DHT22;1685;53.104;8.228;2023-02-20T16:52:32;9.30;99.90
3344;DHT22;1685;53.104;8.228;2023-02-20T16:59:56;9.30;99.90
3344;DHT22;1685;53.104;8.228;2023-02-20T17:02:25;9.30;99.90
3344;DHT22;1685;53.104;8.228;2023-02-20T17:09:48;9.20;99.90
3344;DHT22;1685;53.104;8.228;2023-02-20T17:12:17;9.20;99.90
3344;DHT22;1685;53.104;8.228;2023-02-20T17:19:40;9.10;99.90
3344;DHT22;1685;53.104;8.228;2023-02-20T17:27:03;9.20;99.90
3344;DHT22;1685;53.104;8.228;2023-02-20T17:39:19;9.10;99.90
3344;DHT22;1685;53.104;8.228;2023-02-20T17:41:47;9.10;99.90
3344;DHT22;1685;53.104;8.228;2023-02-20T17:44:18;9.10;99.90
3344;DHT22;1685;53.104;8.228;2023-02-20T17:56:39;9.10;99.90
3344;DHT22;1685;53.104;8.228;2023-02-20T18:01:34;9.00;99.90
3344;DHT22;1685;53.104;8.228;2023-02-20T18:18:47;9.00;99.90
3344;DHT22;1685;53.104;8.228;2023-02-20T18:21:16;9.00;99.90
3344;DHT22;1685;53.104;8.228;2023-02-20T18:33:32;8.90;99.90
3344;DHT22;1685;53.104;8.228;2023-02-20T18:36:00;9.00;99.90
3344;DHT22;1685;53.104;8.228;2023-02-20T18:53:11;8.90;99.90
3344;DHT22;1685;53.104;8.228;2023-02-20T19:10:26;8.90;99.90
3344;DHT22;1685;53.104;8.228;2023-02-20T19:12:53;8.90;99.90
3344;DHT22;1685;53.104;8.228;2023-02-20T19:15:20;8.80;99.90
3344;DHT22;1685;53.104;8.228;2023-02-20T19:17:49;8.90;99.90
3344;DHT22;1685;53.104;8.228;2023-02-20T19:20:19;8.90;99.90
3344;DHT22;1685;53.104;8.228;2023-02-20T19:25:13;8.80;99.90
3344;DHT22;1685;53.104;8.228;2023-02-20T19:27:42;8.90;99.90
3344;DHT22;1685;53.104;8.228;2023-02-20T19:30:09;9.00;99.90
3344;DHT22;1685;53.104;8.228;2023-02-20T19:35:04;8.80;99.90
3344;DHT22;1685;53.104;8.228;2023-02-20T19:44:54;8.90;99.90
3344;DHT22;1685;53.104;8.228;2023-02-20T19:54:43;8.90;99.90
3344;DHT22;1685;53.104;8.228;2023-02-20T19:57:11;9.00;99.90
3344;DHT22;1685;53.104;8.228;2023-02-20T20:02:06;8.90;99.90
3344;DHT22;1685;53.104;8.228;2023-02-20T20:16:49;8.90;99.90
3344;DHT22;1685;53.104;8.228;2023-02-20T20:19:18;9.10;99.90
3344;DHT22;1685;53.104;8.228;2023-02-20T20:26:39;9.00;99.90
3344;DHT22;1685;53.104;8.228;2023-02-20T20:31:36;9.00;99.90
3344;DHT22;1685;53.104;8.228;2023-02-20T20:36:31;9.00;99.90
3344;DHT22;1685;53.104;8.228;2023-02-20T20:51:16;9.00;99.90
3344;DHT22;1685;53.104;8.228;2023-02-20T20:53:45;9.10;99.90
3344;DHT22;1685;53.104;8.228;2023-02-20T21:10:59;9.10;99.90
3344;DHT22;1685;53.104;8.228;2023-02-20T21:28:10;9.40;99.90
3344;DHT22;1685;53.104;8.228;2023-02-20T21:45:34;9.30;99.90
3344;DHT22;1685;53.104;8.228;2023-02-20T22:02:50;9.50;99.90
3344;DHT22;1685;53.104;8.228;2023-02-20T22:10:27;9.60;99.90
3344;DHT22;1685;53.104;8.228;2023-02-20T22:13:11;9.50;99.90
3344;DHT22;1685;53.104;8.228;2023-02-20T22:18:41;9.50;99.90
3344;DHT22;1685;53.104;8.228;2023-02-20T22:24:10;9.50;99.90
3344;DHT22;1685;53.104;8.228;2023-02-20T22:32:24;9.40;99.90
3344;DHT22;1685;53.104;8.228;2023-02-20T22:35:11;9.40;99.90
3344;DHT22;1685;53.104;8.228;2023-02-20T22:37:55;9.30;99.90
3344;DHT22;1685;53.104;8.228;2023-02-20T22:43:24;9.10;99.90
3344;DHT22;1685;53.104;8.228;2023-02-20T22:46:08;9.30;99.90
3344;DHT22;1685;53.104;8.228;2023-02-20T22:48:52;9.20;99.90
3344;DHT22;1685;53.104;8.228;2023-02-20T22:51:37;9.10;99.90
3344;DHT22;1685;53.104;8.228;2023-02-20T22:54:22;9.20;99.90
3344;DHT22;1685;53.104;8.228;2023-02-20T22:57:06;9.20;99.90
3344;DHT22;1685;53.104;8.228;2023-02-20T22:59:51;9.30;99.90
3344;DHT22;1685;53.104;8.228;2023-02-20T23:02:35;9.20;99.90
3344;DHT22;1685;53.104;8.228;2023-02-20T23:05:20;9.20;99.90
3344;DHT22;1685;53.104;8.228;2023-02-20T23:08:06;9.30;99.90
3344;DHT22;1685;53.104;8.228;2023-02-20T23:10:50;9.20;99.90
3344;DHT22;1685;53.104;8.228;2023-02-20T23:13:34;9.00;99.90
3344;DHT22;1685;53.104;8.228;2023-02-20T23:16:20;9.10;99.90
3344;DHT22;1685;53.104;8.228;2023-02-20T23:19:04;9.10;99.90
3344;DHT22;1685;53.104;8.228;2023-02-20T23:21:48;9.00;99.90
3344;DHT22;1685;53.104;8.228;2023-02-20T23:24:34;9.00;99.90
3344;DHT22;1685;53.104;8.228;2023-02-20T23:30:03;9.00;99.90
3344;DHT22;1685;53.104;8.228;2023-02-20T23:32:47;9.00;99.90
3344;DHT22;1685;53.104;8.228;2023-02-20T23:35:32;9.20;99.90
3344;DHT22;1685;53.104;8.228;2023-02-20T23:38:16;9.10;99.90
3344;DHT22;1685;53.104;8.228;2023-02-20T23:41:01;9.00;99.90
3344;DHT22;1685;53.104;8.228;2023-02-20T23:46:30;9.20;99.90
3344;DHT22;1685;53.104;8.228;2023-02-20T23:49:14;9.10;99.90
3344;DHT22;1685;53.104;8.228;2023-02-20T23:51:58;9.00;99.90
3344;DHT22;1685;53.104;8.228;2023-02-20T23:57:28;9.00;99.90
